sensor_id;sensor_type;location;lat;lon;timestamp;temperature;humidity
27200;DHT22;14714;48.106;11.546;2024-03-22T00:01:48;6.10;99.90
27200;DHT22;14714;48.106;11.546;2024-03-22T00:04:14;6.10;99.90
27200;DHT22;14714;48.106;11.546;2024-03-22T00:06:45;6.10;99.90
27200;DHT22;14714;48.106;11.546;2024-03-22T00:09:12;6.10;99.90
27200;DHT22;14714;48.106;11.546;2024-03-22T00:11:40;6.10;99.90
27200;DHT22;14714;48.106;11.546;2024-03-22T00:14:06;6.00;99.90
27200;DHT22;14714;48.106;11.546;2024-03-22T00:16:32;6.00;99.90
27200;DHT22;14714;48.106;11.546;2024-03-22T00:18:58;5.90;99.90
27200;DHT22;14714;48.106;11.546;2024-03-22T00:21:24;5.90;99.90
27200;DHT22;14714;48.106;11.546;2024-03-22T00:23:50;5.90;99.90
27200;DHT22;14714;48.106;11.546;2024-03-22T00:26:17;5.80;99.90
27200;DHT22;14714;48.106;11.546;2024-03-22T00:28:43;5.70;99.90
27200;DHT22;14714;48.106;11.546;2024-03-22T00:31:09;5.70;99.90
27200;DHT22;14714;48.106;11.546;2024-03-22T00:33:35;5.70;99.90
27200;DHT22;14714;48.106;11.546;2024-03-22T00:36:01;5.60;99.90
27200;DHT22;14714;48.106;11.546;2024-03-22T00:38:27;5.60;99.90
27200;DHT22;14714;48.106;11.546;2024-03-22T00:40:53;5.60;99.90
27200;DHT22;14714;48.106;11.546;2024-03-22T00:43:20;5.60;99.90
27200;DHT22;14714;48.106;11.546;2024-03-22T00:45:47;5.60;99.90
27200;DHT22;14714;48.106;11.546;2024-03-22T00:48:13;5.60;99.90
27200;DHT22;14714;48.106;11.546;2024-03-22T00:50:39;5.60;99.90
27200;DHT22;14714;48.106;11.546;2024-03-22T00:53:05;5.50;99.90
27200;DHT22;14714;48.106;11.546;2024-03-22T00:55:33;5.50;99.90
27200;DHT22;14714;48.106;11.546;2024-03-22T00:58:00;5.40;99.90
27200;DHT22;14714;48.106;11.546;2024-03-22T01:00:26;5.50;99.90
27200;DHT22;14714;48.106;11.546;2024-03-22T01:02:52;5.50;99.90
27200;DHT22;14714;48.106;11.546;2024-03-22T01:05:18;5.50;99.90
27200;DHT22;14714;48.106;11.546;2024-03-22T01:07:44;5.50;99.90
27200;DHT22;14714;48.106;11.546;2024-03-22T01:10:11;5.50;99.90
27200;DHT22;14714;48.106;11.546;2024-03-22T01:12:37;5.50;99.90
27200;DHT22;14714;48.106;11.546;2024-03-22T01:15:05;5.50;99.90
27200;DHT22;14714;48.106;11.546;2024-03-22T01:17:32;5.50;99.90
27200;DHT22;14714;48.106;11.546;2024-03-22T01:19:58;5.50;99.90
27200;DHT22;14714;48.106;11.546;2024-03-22T01:22:24;5.50;99.90
27200;DHT22;14714;48.106;11.546;2024-03-22T01:24:50;5.50;99.90
27200;DHT22;14714;48.106;11.546;2024-03-22T01:27:16;5.40;99.90
27200;DHT22;14714;48.106;11.546;2024-03-22T01:29:42;5.40;99.90
27200;DHT22;14714;48.106;11.546;2024-03-22T01:32:08;5.40;99.90
27200;DHT22;14714;48.106;11.546;2024-03-22T01:34:34;5.40;99.90
27200;DHT22;14714;48.106;11.546;2024-03-22T01:37:02;5.30;99.90
27200;DHT22;14714;48.106;11.546;2024-03-22T01:39:28;5.30;99.90
27200;DHT22;14714;48.106;11.546;2024-03-22T01:41:54;5.30;99.90
27200;DHT22;14714;48.106;11.546;2024-03-22T01:44:27;5.20;99.90
27200;DHT22;14714;48.106;11.546;2024-03-22T01:46:53;5.20;99.90
27200;DHT22;14714;48.106;11.546;2024-03-22T01:49:19;5.20;99.90
27200;DHT22;14714;48.106;11.546;2024-03-22T01:51:45;5.20;99.90
27200;DHT22;14714;48.106;11.546;2024-03-22T01:54:12;5.20;99.90
27200;DHT22;14714;48.106;11.546;2024-03-22T01:56:38;5.20;99.90
27200;DHT22;14714;48.106;11.546;2024-03-22T01:59:05;5.20;99.90
27200;DHT22;14714;48.106;11.546;2024-03-22T02:01:32;5.10;99.90
27200;DHT22;14714;48.106;11.546;2024-03-22T02:03:58;5.10;99.90
27200;DHT22;14714;48.106;11.546;2024-03-22T02:06:24;5.10;99.90
27200;DHT22;14714;48.106;11.546;2024-03-22T02:08:50;5.10;99.90
27200;DHT22;14714;48.106;11.546;2024-03-22T02:11:16;5.00;99.90
27200;DHT22;14714;48.106;11.546;2024-03-22T02:13:42;5.00;99.90
27200;DHT22;14714;48.106;11.546;2024-03-22T02:16:09;5.00;99.90
27200;DHT22;14714;48.106;11.546;2024-03-22T02:18:35;5.00;99.90
27200;DHT22;14714;48.106;11.546;2024-03-22T02:21:01;5.00;99.90
27200;DHT22;14714;48.106;11.546;2024-03-22T02:23:35;5.00;99.90
27200;DHT22;14714;48.106;11.546;2024-03-22T02:26:02;5.00;99.90
27200;DHT22;14714;48.106;11.546;2024-03-22T02:28:29;5.00;99.90
27200;DHT22;14714;48.106;11.546;2024-03-22T02:30:56;5.00;99.90
27200;DHT22;14714;48.106;11.546;2024-03-22T02:33:22;5.00;99.90
27200;DHT22;14714;48.106;11.546;2024-03-22T02:35:48;4.90;99.90
27200;DHT22;14714;48.106;11.546;2024-03-22T02:38:15;4.90;99.90
27200;DHT22;14714;48.106;11.546;2024-03-22T02:40:43;4.90;99.90
27200;DHT22;14714;48.106;11.546;2024-03-22T02:43:09;4.80;99.90
27200;DHT22;14714;48.106;11.546;2024-03-22T02:45:35;4.80;99.90
27200;DHT22;14714;48.106;11.546;2024-03-22T02:48:01;4.80;99.90
27200;DHT22;14714;48.106;11.546;2024-03-22T02:50:27;4.70;99.90
27200;DHT22;14714;48.106;11.546;2024-03-22T02:52:53;4.70;99.90
27200;DHT22;14714;48.106;11.546;2024-03-22T02:55:19;4.70;99.90
27200;DHT22;14714;48.106;11.546;2024-03-22T02:57:45;4.70;99.90
27200;DHT22;14714;48.106;11.546;2024-03-22T03:00:11;4.60;99.90
27200;DHT22;14714;48.106;11.546;2024-03-22T03:02:38;4.60;99.90
27200;DHT22;14714;48.106;11.546;2024-03-22T03:05:04;4.60;99.90
27200;DHT22;14714;48.106;11.546;2024-03-22T03:07:31;4.60;99.90
27200;DHT22;14714;48.106;11.546;2024-03-22T03:09:57;4.60;99.90
27200;DHT22;14714;48.106;11.546;2024-03-22T03:12:23;4.60;99.90
27200;DHT22;14714;48.106;11.546;2024-03-22T03:14:49;4.60;99.90
27200;DHT22;14714;48.106;11.546;2024-03-22T03:17:15;4.60;99.90
27200;DHT22;14714;48.106;11.546;2024-03-22T03:19:41;4.60;99.90
27200;DHT22;14714;48.106;11.546;2024-03-22T03:22:07;4.60;99.90
27200;DHT22;14714;48.106;11.546;2024-03-22T03:24:33;4.50;99.90
27200;DHT22;14714;48.106;11.546;2024-03-22T03:26:59;4.50;99.90
27200;DHT22;14714;48.106;11.546;2024-03-22T03:29:25;4.50;99.90
27200;DHT22;14714;48.106;11.546;2024-03-22T03:31:51;4.50;99.90
27200;DHT22;14714;48.106;11.546;2024-03-22T03:34:17;4.40;99.90
27200;DHT22;14714;48.106;11.546;2024-03-22T03:36:45;4.50;99.90
27200;DHT22;14714;48.106;11.546;2024-03-22T03:39:11;4.40;99.90
27200;DHT22;14714;48.106;11.546;2024-03-22T03:41:37;4.40;99.90
27200;DHT22;14714;48.106;11.546;2024-03-22T03:44:03;4.40;99.90
27200;DHT22;14714;48.106;11.546;2024-03-22T03:46:29;4.40;99.90
27200;DHT22;14714;48.106;11.546;2024-03-22T03:48:55;4.50;99.90
27200;DHT22;14714;48.106;11.546;2024-03-22T03:51:21;4.50;99.90
27200;DHT22;14714;48.106;11.546;2024-03-22T03:53:47;4.60;99.90
27200;DHT22;14714;48.106;11.546;2024-03-22T03:56:13;4.60;99.90
27200;DHT22;14714;48.106;11.546;2024-03-22T03:58:39;4.60;99.90
27200;DHT22;14714;48.106;11.546;2024-03-22T04:01:08;4.60;99.90
27200;DHT22;14714;48.106;11.546;2024-03-22T04:03:35;4.60;99.90
27200;DHT22;14714;48.106;11.546;2024-03-22T04:06:01;4.70;99.90
27200;DHT22;14714;48.106;11.546;2024-03-22T04:08:29;4.70;99.90
27200;DHT22;14714;48.106;11.546;2024-03-22T04:10:56;4.70;99.90
27200;DHT22;14714;48.106;11.546;2024-03-22T04:13:23;4.70;99.90
27200;DHT22;14714;48.106;11.546;2024-03-22T04:15:50;4.70;99.90
27200;DHT22;14714;48.106;11.546;2024-03-22T04:18:16;4.70;99.90
27200;DHT22;14714;48.106;11.546;2024-03-22T04:20:42;4.60;99.90
27200;DHT22;14714;48.106;11.546;2024-03-22T04:23:09;4.70;99.90
27200;DHT22;14714;48.106;11.546;2024-03-22T04:25:35;4.70;99.90
27200;DHT22;14714;48.106;11.546;2024-03-22T04:28:01;4.80;99.90
27200;DHT22;14714;48.106;11.546;2024-03-22T04:30:27;4.90;99.90
27200;DHT22;14714;48.106;11.546;2024-03-22T04:32:53;4.90;99.90
27200;DHT22;14714;48.106;11.546;2024-03-22T04:35:19;5.00;99.90
27200;DHT22;14714;48.106;11.546;2024-03-22T04:37:45;5.10;99.90
27200;DHT22;14714;48.106;11.546;2024-03-22T04:40:11;5.10;99.90
27200;DHT22;14714;48.106;11.546;2024-03-22T04:42:37;5.10;99.90
27200;DHT22;14714;48.106;11.546;2024-03-22T04:45:04;5.10;99.90
27200;DHT22;14714;48.106;11.546;2024-03-22T04:47:30;5.20;99.90
27200;DHT22;14714;48.106;11.546;2024-03-22T04:49:56;5.20;99.90
27200;DHT22;14714;48.106;11.546;2024-03-22T04:52:22;5.30;99.90
27200;DHT22;14714;48.106;11.546;2024-03-22T04:54:48;5.30;99.90
27200;DHT22;14714;48.106;11.546;2024-03-22T04:57:15;5.40;99.90
27200;DHT22;14714;48.106;11.546;2024-03-22T04:59:41;5.40;99.90
27200;DHT22;14714;48.106;11.546;2024-03-22T05:02:07;5.40;99.90
27200;DHT22;14714;48.106;11.546;2024-03-22T05:04:33;5.50;99.90
27200;DHT22;14714;48.106;11.546;2024-03-22T05:06:59;5.50;99.90
27200;DHT22;14714;48.106;11.546;2024-03-22T05:09:25;5.50;99.90
27200;DHT22;14714;48.106;11.546;2024-03-22T05:11:51;5.50;99.90
27200;DHT22;14714;48.106;11.546;2024-03-22T05:14:19;5.50;99.90
27200;DHT22;14714;48.106;11.546;2024-03-22T05:16:45;5.50;99.90
27200;DHT22;14714;48.106;11.546;2024-03-22T05:19:11;5.60;99.90
27200;DHT22;14714;48.106;11.546;2024-03-22T05:21:37;5.70;99.90
27200;DHT22;14714;48.106;11.546;2024-03-22T05:24:03;5.70;99.90
27200;DHT22;14714;48.106;11.546;2024-03-22T05:26:29;5.80;99.90
27200;DHT22;14714;48.106;11.546;2024-03-22T05:28:57;5.80;99.90
27200;DHT22;14714;48.106;11.546;2024-03-22T05:31:23;5.90;99.90
27200;DHT22;14714;48.106;11.546;2024-03-22T05:33:49;6.00;99.90
27200;DHT22;14714;48.106;11.546;2024-03-22T05:36:15;6.10;99.90
27200;DHT22;14714;48.106;11.546;2024-03-22T05:38:41;6.20;99.90
27200;DHT22;14714;48.106;11.546;2024-03-22T05:41:07;6.20;99.90
27200;DHT22;14714;48.106;11.546;2024-03-22T05:43:34;6.30;99.90
27200;DHT22;14714;48.106;11.546;2024-03-22T05:46:00;6.40;99.90
27200;DHT22;14714;48.106;11.546;2024-03-22T05:48:26;6.50;99.90
27200;DHT22;14714;48.106;11.546;2024-03-22T05:50:51;6.60;99.90
27200;DHT22;14714;48.106;11.546;2024-03-22T05:53:18;6.60;99.90
27200;DHT22;14714;48.106;11.546;2024-03-22T05:55:44;6.70;99.90
27200;DHT22;14714;48.106;11.546;2024-03-22T05:58:10;6.70;99.90
27200;DHT22;14714;48.106;11.546;2024-03-22T06:00:36;6.80;99.90
27200;DHT22;14714;48.106;11.546;2024-03-22T06:03:02;6.80;99.90
27200;DHT22;14714;48.106;11.546;2024-03-22T06:05:28;6.80;99.90
27200;DHT22;14714;48.106;11.546;2024-03-22T06:07:54;6.90;99.90
27200;DHT22;14714;48.106;11.546;2024-03-22T06:10:20;6.90;99.90
27200;DHT22;14714;48.106;11.546;2024-03-22T06:12:46;7.00;99.90
27200;DHT22;14714;48.106;11.546;2024-03-22T06:15:13;7.00;99.90
27200;DHT22;14714;48.106;11.546;2024-03-22T06:17:39;7.10;99.90
27200;DHT22;14714;48.106;11.546;2024-03-22T06:20:05;7.20;99.90
27200;DHT22;14714;48.106;11.546;2024-03-22T06:22:31;7.20;99.90
27200;DHT22;14714;48.106;11.546;2024-03-22T06:24:57;7.40;99.90
27200;DHT22;14714;48.106;11.546;2024-03-22T06:27:24;7.50;99.90
27200;DHT22;14714;48.106;11.546;2024-03-22T06:29:50;7.60;99.90
27200;DHT22;14714;48.106;11.546;2024-03-22T06:32:16;7.60;99.90
27200;DHT22;14714;48.106;11.546;2024-03-22T06:34:42;7.60;99.90
27200;DHT22;14714;48.106;11.546;2024-03-22T06:37:08;7.60;99.90
27200;DHT22;14714;48.106;11.546;2024-03-22T06:39:34;7.60;99.90
27200;DHT22;14714;48.106;11.546;2024-03-22T06:42:00;7.90;99.90
27200;DHT22;14714;48.106;11.546;2024-03-22T06:44:26;8.30;99.90
27200;DHT22;14714;48.106;11.546;2024-03-22T06:46:52;8.70;99.90
27200;DHT22;14714;48.106;11.546;2024-03-22T06:49:18;8.80;99.90
27200;DHT22;14714;48.106;11.546;2024-03-22T06:51:44;9.00;99.90
27200;DHT22;14714;48.106;11.546;2024-03-22T06:54:10;9.10;99.90
27200;DHT22;14714;48.106;11.546;2024-03-22T06:56:36;9.30;99.90
27200;DHT22;14714;48.106;11.546;2024-03-22T06:59:02;9.40;99.90
27200;DHT22;14714;48.106;11.546;2024-03-22T07:01:28;9.40;99.90
27200;DHT22;14714;48.106;11.546;2024-03-22T07:03:54;9.60;99.90
27200;DHT22;14714;48.106;11.546;2024-03-22T07:06:20;10.00;99.90
27200;DHT22;14714;48.106;11.546;2024-03-22T07:08:46;10.70;99.90
27200;DHT22;14714;48.106;11.546;2024-03-22T07:11:12;11.30;99.90
27200;DHT22;14714;48.106;11.546;2024-03-22T07:13:38;12.00;99.90
27200;DHT22;14714;48.106;11.546;2024-03-22T07:16:04;13.10;99.90
27200;DHT22;14714;48.106;11.546;2024-03-22T07:18:30;14.40;99.90
27200;DHT22;14714;48.106;11.546;2024-03-22T07:20:56;15.90;99.90
27200;DHT22;14714;48.106;11.546;2024-03-22T07:23:23;17.40;99.90
27200;DHT22;14714;48.106;11.546;2024-03-22T07:25:49;18.90;99.90
27200;DHT22;14714;48.106;11.546;2024-03-22T07:28:15;20.10;99.90
27200;DHT22;14714;48.106;11.546;2024-03-22T07:30:42;20.60;96.00
27200;DHT22;14714;48.106;11.546;2024-03-22T07:33:09;20.80;93.50
27200;DHT22;14714;48.106;11.546;2024-03-22T07:35:35;21.00;92.00
27200;DHT22;14714;48.106;11.546;2024-03-22T07:38:01;20.90;88.00
27200;DHT22;14714;48.106;11.546;2024-03-22T07:40:27;20.30;87.80
27200;DHT22;14714;48.106;11.546;2024-03-22T07:42:53;19.90;89.50
27200;DHT22;14714;48.106;11.546;2024-03-22T07:45:19;19.40;90.40
27200;DHT22;14714;48.106;11.546;2024-03-22T07:47:45;19.00;90.70
27200;DHT22;14714;48.106;11.546;2024-03-22T07:50:11;18.80;91.20
27200;DHT22;14714;48.106;11.546;2024-03-22T07:52:37;18.70;92.50
27200;DHT22;14714;48.106;11.546;2024-03-22T07:55:03;18.80;92.90
27200;DHT22;14714;48.106;11.546;2024-03-22T07:57:29;19.00;92.60
27200;DHT22;14714;48.106;11.546;2024-03-22T07:59:57;19.50;91.30
27200;DHT22;14714;48.106;11.546;2024-03-22T08:02:23;20.00;90.80
27200;DHT22;14714;48.106;11.546;2024-03-22T08:04:50;20.70;90.00
27200;DHT22;14714;48.106;11.546;2024-03-22T08:07:16;21.00;84.50
27200;DHT22;14714;48.106;11.546;2024-03-22T08:09:42;21.20;84.40
27200;DHT22;14714;48.106;11.546;2024-03-22T08:12:08;21.80;84.70
27200;DHT22;14714;48.106;11.546;2024-03-22T08:14:34;22.50;76.80
27200;DHT22;14714;48.106;11.546;2024-03-22T08:17:00;22.90;74.80
27200;DHT22;14714;48.106;11.546;2024-03-22T08:19:26;23.30;70.50
27200;DHT22;14714;48.106;11.546;2024-03-22T08:21:52;24.00;71.70
27200;DHT22;14714;48.106;11.546;2024-03-22T08:24:19;25.00;68.80
27200;DHT22;14714;48.106;11.546;2024-03-22T08:26:45;26.50;62.60
27200;DHT22;14714;48.106;11.546;2024-03-22T08:29:15;27.60;58.00
27200;DHT22;14714;48.106;11.546;2024-03-22T08:31:41;28.90;54.20
27200;DHT22;14714;48.106;11.546;2024-03-22T08:34:08;30.00;51.50
27200;DHT22;14714;48.106;11.546;2024-03-22T08:36:34;31.10;48.70
27200;DHT22;14714;48.106;11.546;2024-03-22T08:39:00;32.10;46.00
27200;DHT22;14714;48.106;11.546;2024-03-22T08:41:26;32.90;43.30
27200;DHT22;14714;48.106;11.546;2024-03-22T08:43:53;33.50;39.80
27200;DHT22;14714;48.106;11.546;2024-03-22T08:46:20;33.90;39.70
27200;DHT22;14714;48.106;11.546;2024-03-22T08:48:47;34.20;36.70
27200;DHT22;14714;48.106;11.546;2024-03-22T08:51:13;33.80;37.00
27200;DHT22;14714;48.106;11.546;2024-03-22T08:53:39;33.30;37.40
27200;DHT22;14714;48.106;11.546;2024-03-22T08:56:05;32.90;35.80
27200;DHT22;14714;48.106;11.546;2024-03-22T08:58:31;32.80;38.70
27200;DHT22;14714;48.106;11.546;2024-03-22T09:00:57;33.40;38.10
27200;DHT22;14714;48.106;11.546;2024-03-22T09:03:23;34.00;35.80
27200;DHT22;14714;48.106;11.546;2024-03-22T09:05:53;34.50;36.90
27200;DHT22;14714;48.106;11.546;2024-03-22T09:08:20;35.00;35.00
27200;DHT22;14714;48.106;11.546;2024-03-22T09:10:47;34.60;33.20
27200;DHT22;14714;48.106;11.546;2024-03-22T09:13:13;34.60;35.00
27200;DHT22;14714;48.106;11.546;2024-03-22T09:15:40;34.80;33.80
27200;DHT22;14714;48.106;11.546;2024-03-22T09:18:06;35.10;33.80
27200;DHT22;14714;48.106;11.546;2024-03-22T09:20:33;35.10;32.60
27200;DHT22;14714;48.106;11.546;2024-03-22T09:22:59;34.90;33.50
27200;DHT22;14714;48.106;11.546;2024-03-22T09:25:25;35.00;35.70
27200;DHT22;14714;48.106;11.546;2024-03-22T09:27:51;35.20;34.20
27200;DHT22;14714;48.106;11.546;2024-03-22T09:30:17;35.50;33.50
27200;DHT22;14714;48.106;11.546;2024-03-22T09:32:44;35.50;33.30
27200;DHT22;14714;48.106;11.546;2024-03-22T09:35:10;34.80;32.90
27200;DHT22;14714;48.106;11.546;2024-03-22T09:37:37;33.80;32.90
27200;DHT22;14714;48.106;11.546;2024-03-22T09:40:03;32.50;36.80
27200;DHT22;14714;48.106;11.546;2024-03-22T09:42:33;31.80;35.40
27200;DHT22;14714;48.106;11.546;2024-03-22T09:45:02;31.10;37.70
27200;DHT22;14714;48.106;11.546;2024-03-22T09:47:28;30.90;37.60
27200;DHT22;14714;48.106;11.546;2024-03-22T09:49:55;30.90;38.20
27200;DHT22;14714;48.106;11.546;2024-03-22T09:52:22;31.40;37.80
27200;DHT22;14714;48.106;11.546;2024-03-22T09:54:48;31.90;37.70
27200;DHT22;14714;48.106;11.546;2024-03-22T09:57:15;32.30;36.20
27200;DHT22;14714;48.106;11.546;2024-03-22T09:59:47;32.60;34.70
27200;DHT22;14714;48.106;11.546;2024-03-22T10:02:13;32.50;34.40
27200;DHT22;14714;48.106;11.546;2024-03-22T10:04:41;32.70;34.30
27200;DHT22;14714;48.106;11.546;2024-03-22T10:07:07;33.10;35.40
27200;DHT22;14714;48.106;11.546;2024-03-22T10:09:37;33.50;35.00
27200;DHT22;14714;48.106;11.546;2024-03-22T10:12:03;33.80;34.10
27200;DHT22;14714;48.106;11.546;2024-03-22T10:14:30;33.80;33.70
27200;DHT22;14714;48.106;11.546;2024-03-22T10:16:57;33.50;34.00
27200;DHT22;14714;48.106;11.546;2024-03-22T10:19:24;33.20;34.20
27200;DHT22;14714;48.106;11.546;2024-03-22T10:22:08;32.60;34.80
27200;DHT22;14714;48.106;11.546;2024-03-22T10:24:34;32.20;33.90
27200;DHT22;14714;48.106;11.546;2024-03-22T10:27:00;32.00;35.60
27200;DHT22;14714;48.106;11.546;2024-03-22T10:29:26;31.80;36.40
27200;DHT22;14714;48.106;11.546;2024-03-22T10:31:53;31.60;35.30
27200;DHT22;14714;48.106;11.546;2024-03-22T10:34:22;31.40;37.10
27200;DHT22;14714;48.106;11.546;2024-03-22T10:36:49;30.70;37.30
27200;DHT22;14714;48.106;11.546;2024-03-22T10:39:18;29.70;39.00
27200;DHT22;14714;48.106;11.546;2024-03-22T10:41:48;29.10;41.10
27200;DHT22;14714;48.106;11.546;2024-03-22T10:44:15;28.60;39.90
27200;DHT22;14714;48.106;11.546;2024-03-22T10:46:46;27.90;41.10
27200;DHT22;14714;48.106;11.546;2024-03-22T10:49:17;27.30;42.10
27200;DHT22;14714;48.106;11.546;2024-03-22T10:52:01;27.00;43.10
27200;DHT22;14714;48.106;11.546;2024-03-22T10:54:33;26.70;44.10
27200;DHT22;14714;48.106;11.546;2024-03-22T10:57:01;26.40;44.30
27200;DHT22;14714;48.106;11.546;2024-03-22T10:59:33;26.20;45.10
27200;DHT22;14714;48.106;11.546;2024-03-22T11:02:06;26.40;45.20
27200;DHT22;14714;48.106;11.546;2024-03-22T11:04:33;26.50;44.50
27200;DHT22;14714;48.106;11.546;2024-03-22T11:06:59;26.60;44.10
27200;DHT22;14714;48.106;11.546;2024-03-22T11:09:26;26.30;45.50
27200;DHT22;14714;48.106;11.546;2024-03-22T11:11:53;25.90;45.20
27200;DHT22;14714;48.106;11.546;2024-03-22T11:14:19;25.80;44.90
27200;DHT22;14714;48.106;11.546;2024-03-22T11:16:51;25.30;46.10
27200;DHT22;14714;48.106;11.546;2024-03-22T11:19:18;24.90;47.50
27200;DHT22;14714;48.106;11.546;2024-03-22T11:21:44;24.70;48.50
27200;DHT22;14714;48.106;11.546;2024-03-22T11:24:10;24.20;46.80
27200;DHT22;14714;48.106;11.546;2024-03-22T11:26:37;23.80;49.00
27200;DHT22;14714;48.106;11.546;2024-03-22T11:29:03;23.60;51.00
27200;DHT22;14714;48.106;11.546;2024-03-22T11:31:29;23.50;50.50
27200;DHT22;14714;48.106;11.546;2024-03-22T11:33:56;23.30;50.20
27200;DHT22;14714;48.106;11.546;2024-03-22T11:36:23;23.30;51.40
27200;DHT22;14714;48.106;11.546;2024-03-22T11:38:49;23.40;51.30
27200;DHT22;14714;48.106;11.546;2024-03-22T11:41:25;23.40;51.90
27200;DHT22;14714;48.106;11.546;2024-03-22T11:43:52;23.30;51.20
27200;DHT22;14714;48.106;11.546;2024-03-22T11:46:18;23.40;50.60
27200;DHT22;14714;48.106;11.546;2024-03-22T11:48:51;23.30;51.60
27200;DHT22;14714;48.106;11.546;2024-03-22T11:51:17;23.20;51.20
27200;DHT22;14714;48.106;11.546;2024-03-22T11:53:52;22.90;51.80
27200;DHT22;14714;48.106;11.546;2024-03-22T11:56:24;22.60;53.50
27200;DHT22;14714;48.106;11.546;2024-03-22T11:58:58;22.20;54.70
27200;DHT22;14714;48.106;11.546;2024-03-22T12:01:24;21.80;53.60
27200;DHT22;14714;48.106;11.546;2024-03-22T12:03:51;21.50;55.00
27200;DHT22;14714;48.106;11.546;2024-03-22T12:06:17;21.20;56.80
27200;DHT22;14714;48.106;11.546;2024-03-22T12:08:43;21.00;57.20
27200;DHT22;14714;48.106;11.546;2024-03-22T12:11:10;20.90;57.10
27200;DHT22;14714;48.106;11.546;2024-03-22T12:13:37;20.70;57.70
27200;DHT22;14714;48.106;11.546;2024-03-22T12:16:04;20.60;59.00
27200;DHT22;14714;48.106;11.546;2024-03-22T12:18:30;20.50;59.00
27200;DHT22;14714;48.106;11.546;2024-03-22T12:20:56;20.40;58.60
27200;DHT22;14714;48.106;11.546;2024-03-22T12:23:22;20.30;58.50
27200;DHT22;14714;48.106;11.546;2024-03-22T12:25:50;20.20;58.40
27200;DHT22;14714;48.106;11.546;2024-03-22T12:28:16;20.20;59.30
27200;DHT22;14714;48.106;11.546;2024-03-22T12:30:43;20.20;60.30
27200;DHT22;14714;48.106;11.546;2024-03-22T12:33:09;20.30;60.30
27200;DHT22;14714;48.106;11.546;2024-03-22T12:35:40;20.30;59.80
27200;DHT22;14714;48.106;11.546;2024-03-22T12:38:07;20.40;58.70
27200;DHT22;14714;48.106;11.546;2024-03-22T12:40:36;20.40;59.00
27200;DHT22;14714;48.106;11.546;2024-03-22T12:43:03;20.30;59.80
27200;DHT22;14714;48.106;11.546;2024-03-22T12:45:29;20.30;61.20
27200;DHT22;14714;48.106;11.546;2024-03-22T12:47:55;20.20;59.80
27200;DHT22;14714;48.106;11.546;2024-03-22T12:50:21;20.20;59.70
27200;DHT22;14714;48.106;11.546;2024-03-22T12:52:47;20.20;61.10
27200;DHT22;14714;48.106;11.546;2024-03-22T12:55:13;20.30;60.20
27200;DHT22;14714;48.106;11.546;2024-03-22T12:57:40;20.30;59.50
27200;DHT22;14714;48.106;11.546;2024-03-22T13:00:07;20.50;60.60
27200;DHT22;14714;48.106;11.546;2024-03-22T13:02:41;20.50;59.50
27200;DHT22;14714;48.106;11.546;2024-03-22T13:05:07;20.50;59.10
27200;DHT22;14714;48.106;11.546;2024-03-22T13:07:34;20.50;59.40
27200;DHT22;14714;48.106;11.546;2024-03-22T13:10:00;20.50;59.50
27200;DHT22;14714;48.106;11.546;2024-03-22T13:12:28;20.50;59.30
27200;DHT22;14714;48.106;11.546;2024-03-22T13:14:54;20.40;58.80
27200;DHT22;14714;48.106;11.546;2024-03-22T13:17:20;20.20;59.40
27200;DHT22;14714;48.106;11.546;2024-03-22T13:19:46;20.10;61.10
27200;DHT22;14714;48.106;11.546;2024-03-22T13:22:12;20.00;61.20
27200;DHT22;14714;48.106;11.546;2024-03-22T13:24:38;20.00;61.90
27200;DHT22;14714;48.106;11.546;2024-03-22T13:27:04;20.00;60.00
27200;DHT22;14714;48.106;11.546;2024-03-22T13:29:30;20.00;61.00
27200;DHT22;14714;48.106;11.546;2024-03-22T13:31:57;20.00;60.10
27200;DHT22;14714;48.106;11.546;2024-03-22T13:34:23;19.90;59.80
27200;DHT22;14714;48.106;11.546;2024-03-22T13:36:49;20.00;61.20
27200;DHT22;14714;48.106;11.546;2024-03-22T13:39:15;20.00;61.00
27200;DHT22;14714;48.106;11.546;2024-03-22T13:41:41;20.10;60.00
27200;DHT22;14714;48.106;11.546;2024-03-22T13:44:07;20.20;58.60
27200;DHT22;14714;48.106;11.546;2024-03-22T13:46:34;20.10;59.40
27200;DHT22;14714;48.106;11.546;2024-03-22T13:49:14;20.00;59.20
27200;DHT22;14714;48.106;11.546;2024-03-22T13:51:47;20.00;59.80
27200;DHT22;14714;48.106;11.546;2024-03-22T13:54:14;20.10;59.20
27200;DHT22;14714;48.106;11.546;2024-03-22T13:56:40;20.10;59.80
27200;DHT22;14714;48.106;11.546;2024-03-22T13:59:07;20.20;58.80
27200;DHT22;14714;48.106;11.546;2024-03-22T14:01:36;20.20;59.20
27200;DHT22;14714;48.106;11.546;2024-03-22T14:04:05;20.10;58.00
27200;DHT22;14714;48.106;11.546;2024-03-22T14:06:32;19.90;60.00
27200;DHT22;14714;48.106;11.546;2024-03-22T14:08:59;20.00;59.90
27200;DHT22;14714;48.106;11.546;2024-03-22T14:11:29;20.00;59.20
27200;DHT22;14714;48.106;11.546;2024-03-22T14:13:57;20.10;59.40
27200;DHT22;14714;48.106;11.546;2024-03-22T14:16:23;20.10;59.30
27200;DHT22;14714;48.106;11.546;2024-03-22T14:18:49;20.10;59.10
27200;DHT22;14714;48.106;11.546;2024-03-22T14:21:16;20.20;60.00
27200;DHT22;14714;48.106;11.546;2024-03-22T14:23:46;20.20;59.90
27200;DHT22;14714;48.106;11.546;2024-03-22T14:26:12;20.20;59.50
27200;DHT22;14714;48.106;11.546;2024-03-22T14:28:38;20.30;58.10
27200;DHT22;14714;48.106;11.546;2024-03-22T14:31:07;20.20;58.80
27200;DHT22;14714;48.106;11.546;2024-03-22T14:33:36;20.10;60.00
27200;DHT22;14714;48.106;11.546;2024-03-22T14:36:03;20.10;57.70
27200;DHT22;14714;48.106;11.546;2024-03-22T14:38:29;20.10;60.60
27200;DHT22;14714;48.106;11.546;2024-03-22T14:40:56;20.00;57.60
27200;DHT22;14714;48.106;11.546;2024-03-22T14:43:26;20.10;60.80
27200;DHT22;14714;48.106;11.546;2024-03-22T14:45:53;20.10;57.00
27200;DHT22;14714;48.106;11.546;2024-03-22T14:48:23;20.00;56.80
27200;DHT22;14714;48.106;11.546;2024-03-22T14:50:52;19.90;58.40
27200;DHT22;14714;48.106;11.546;2024-03-22T14:53:20;19.90;58.60
27200;DHT22;14714;48.106;11.546;2024-03-22T14:55:56;19.80;54.00
27200;DHT22;14714;48.106;11.546;2024-03-22T14:58:36;19.70;55.30
27200;DHT22;14714;48.106;11.546;2024-03-22T15:01:04;19.60;54.50
27200;DHT22;14714;48.106;11.546;2024-03-22T15:03:31;19.50;52.60
27200;DHT22;14714;48.106;11.546;2024-03-22T15:05:58;19.30;52.50
27200;DHT22;14714;48.106;11.546;2024-03-22T15:08:28;19.20;51.90
27200;DHT22;14714;48.106;11.546;2024-03-22T15:10:54;19.00;52.20
27200;DHT22;14714;48.106;11.546;2024-03-22T15:13:20;18.90;52.20
27200;DHT22;14714;48.106;11.546;2024-03-22T15:15:54;18.90;55.20
27200;DHT22;14714;48.106;11.546;2024-03-22T15:18:20;19.00;54.80
27200;DHT22;14714;48.106;11.546;2024-03-22T15:20:49;19.00;52.80